sensor_id;sensor_type;location;lat;lon;timestamp;temperature;humidity
67557;DHT22;54387;53.526;49.300;2023-01-06T00:00:06;-0.40;70.50
67557;DHT22;54387;53.526;49.300;2023-01-06T00:02:42;-0.40;70.70
67557;DHT22;54387;53.526;49.300;2023-01-06T00:05:20;-0.40;70.70
67557;DHT22;54387;53.526;49.300;2023-01-06T00:07:56;-0.50;70.70
67557;DHT22;54387;53.526;49.300;2023-01-06T00:10:32;-0.40;70.90
67557;DHT22;54387;53.526;49.300;2023-01-06T00:13:08;-0.40;70.80
67557;DHT22;54387;53.526;49.300;2023-01-06T00:15:44;-0.40;70.90
67557;DHT22;54387;53.526;49.300;2023-01-06T00:18:20;-0.40;71.30
67557;DHT22;54387;53.526;49.300;2023-01-06T00:20:57;-0.40;70.80
67557;DHT22;54387;53.526;49.300;2023-01-06T00:23:34;-0.40;70.80
67557;DHT22;54387;53.526;49.300;2023-01-06T00:26:10;-0.50;70.80
67557;DHT22;54387;53.526;49.300;2023-01-06T00:28:46;-0.50;70.90
67557;DHT22;54387;53.526;49.300;2023-01-06T00:31:23;-0.50;71.00
67557;DHT22;54387;53.526;49.300;2023-01-06T00:33:59;-0.50;71.10
67557;DHT22;54387;53.526;49.300;2023-01-06T00:36:35;-0.50;71.30
67557;DHT22;54387;53.526;49.300;2023-01-06T00:39:11;-0.40;71.30
67557;DHT22;54387;53.526;49.300;2023-01-06T00:41:48;-0.40;71.10
67557;DHT22;54387;53.526;49.300;2023-01-06T00:44:39;-0.40;71.10
67557;DHT22;54387;53.526;49.300;2023-01-06T00:47:15;-0.40;71.10
67557;DHT22;54387;53.526;49.300;2023-01-06T00:49:51;-0.40;71.10
67557;DHT22;54387;53.526;49.300;2023-01-06T00:52:28;-0.40;71.20
67557;DHT22;54387;53.526;49.300;2023-01-06T00:55:04;-0.40;71.10
67557;DHT22;54387;53.526;49.300;2023-01-06T00:57:40;-0.40;71.00
67557;DHT22;54387;53.526;49.300;2023-01-06T01:00:16;-0.40;71.00
67557;DHT22;54387;53.526;49.300;2023-01-06T01:02:53;-0.40;71.20
67557;DHT22;54387;53.526;49.300;2023-01-06T01:05:29;-0.40;71.30
67557;DHT22;54387;53.526;49.300;2023-01-06T01:08:05;-0.40;71.10
67557;DHT22;54387;53.526;49.300;2023-01-06T01:10:42;-0.40;71.20
67557;DHT22;54387;53.526;49.300;2023-01-06T01:13:18;-0.40;71.10
67557;DHT22;54387;53.526;49.300;2023-01-06T01:15:54;-0.40;71.20
67557;DHT22;54387;53.526;49.300;2023-01-06T01:18:30;-0.40;71.20
67557;DHT22;54387;53.526;49.300;2023-01-06T01:21:06;-0.50;71.80
67557;DHT22;54387;53.526;49.300;2023-01-06T01:23:43;-0.50;71.30
67557;DHT22;54387;53.526;49.300;2023-01-06T01:26:19;-0.50;71.30
67557;DHT22;54387;53.526;49.300;2023-01-06T01:28:55;-0.50;71.40
67557;DHT22;54387;53.526;49.300;2023-01-06T01:31:31;-0.40;71.50
67557;DHT22;54387;53.526;49.300;2023-01-06T01:34:08;-0.40;71.30
67557;DHT22;54387;53.526;49.300;2023-01-06T01:36:46;-0.40;71.20
67557;DHT22;54387;53.526;49.300;2023-01-06T01:39:23;-0.40;71.40
67557;DHT22;54387;53.526;49.300;2023-01-06T01:42:00;-0.40;71.40
67557;DHT22;54387;53.526;49.300;2023-01-06T01:47:38;-0.40;71.50
67557;DHT22;54387;53.526;49.300;2023-01-06T01:52:52;-0.30;71.50
67557;DHT22;54387;53.526;49.300;2023-01-06T01:55:29;-0.30;71.50
67557;DHT22;54387;53.526;49.300;2023-01-06T01:58:11;-0.30;71.30
67557;DHT22;54387;53.526;49.300;2023-01-06T02:00:48;-0.30;71.30
67557;DHT22;54387;53.526;49.300;2023-01-06T02:03:25;-0.30;71.20
67557;DHT22;54387;53.526;49.300;2023-01-06T02:06:04;-0.30;71.10
67557;DHT22;54387;53.526;49.300;2023-01-06T02:11:37;-0.30;71.40
67557;DHT22;54387;53.526;49.300;2023-01-06T02:14:14;-0.30;71.40
67557;DHT22;54387;53.526;49.300;2023-01-06T02:17:56;-0.30;71.30
67557;DHT22;54387;53.526;49.300;2023-01-06T02:25:45;-0.30;71.40
67557;DHT22;54387;53.526;49.300;2023-01-06T02:28:48;-0.30;71.50
67557;DHT22;54387;53.526;49.300;2023-01-06T02:32:10;-0.20;71.30
67557;DHT22;54387;53.526;49.300;2023-01-06T02:34:36;-0.20;71.40
67557;DHT22;54387;53.526;49.300;2023-01-06T02:37:35;-0.20;71.20
67557;DHT22;54387;53.526;49.300;2023-01-06T02:40:18;-0.20;71.10
67557;DHT22;54387;53.526;49.300;2023-01-06T02:42:59;-0.20;71.40
67557;DHT22;54387;53.526;49.300;2023-01-06T02:45:43;-0.20;71.30
67557;DHT22;54387;53.526;49.300;2023-01-06T02:56:30;-0.20;71.10
67557;DHT22;54387;53.526;49.300;2023-01-06T02:59:09;-0.20;71.20
67557;DHT22;54387;53.526;49.300;2023-01-06T03:01:46;-0.20;71.10
67557;DHT22;54387;53.526;49.300;2023-01-06T03:04:27;-0.20;71.00
67557;DHT22;54387;53.526;49.300;2023-01-06T03:07:05;-0.20;71.00
67557;DHT22;54387;53.526;49.300;2023-01-06T03:09:42;-0.20;71.10
67557;DHT22;54387;53.526;49.300;2023-01-06T03:12:26;-0.20;71.20
67557;DHT22;54387;53.526;49.300;2023-01-06T03:15:05;-0.20;71.20
67557;DHT22;54387;53.526;49.300;2023-01-06T03:17:42;-0.20;71.10
67557;DHT22;54387;53.526;49.300;2023-01-06T03:20:18;-0.20;71.10
67557;DHT22;54387;53.526;49.300;2023-01-06T03:22:54;-0.20;71.20
67557;DHT22;54387;53.526;49.300;2023-01-06T03:25:30;-0.20;71.10
67557;DHT22;54387;53.526;49.300;2023-01-06T03:28:06;-0.10;71.20
67557;DHT22;54387;53.526;49.300;2023-01-06T03:33:48;-0.10;71.00
67557;DHT22;54387;53.526;49.300;2023-01-06T03:48:01;-0.10;71.00
67557;DHT22;54387;53.526;49.300;2023-01-06T03:53:47;-0.10;70.30
67557;DHT22;54387;53.526;49.300;2023-01-06T03:56:29;-0.20;70.00
67557;DHT22;54387;53.526;49.300;2023-01-06T03:59:08;-0.20;69.40
67557;DHT22;54387;53.526;49.300;2023-01-06T04:01:46;-0.20;68.70
67557;DHT22;54387;53.526;49.300;2023-01-06T04:04:23;-0.40;68.10
67557;DHT22;54387;53.526;49.300;2023-01-06T04:06:59;-0.40;68.40
67557;DHT22;54387;53.526;49.300;2023-01-06T04:09:35;-0.50;67.80
67557;DHT22;54387;53.526;49.300;2023-01-06T04:12:11;-0.60;68.10
67557;DHT22;54387;53.526;49.300;2023-01-06T04:17:45;-0.70;68.20
67557;DHT22;54387;53.526;49.300;2023-01-06T04:20:23;-0.80;67.90
67557;DHT22;54387;53.526;49.300;2023-01-06T04:22:59;-0.80;68.00
67557;DHT22;54387;53.526;49.300;2023-01-06T04:25:36;-0.80;67.70
67557;DHT22;54387;53.526;49.300;2023-01-06T04:28:12;-1.00;67.30
67557;DHT22;54387;53.526;49.300;2023-01-06T04:30:48;-1.00;67.50
67557;DHT22;54387;53.526;49.300;2023-01-06T04:33:24;-1.10;67.50
67557;DHT22;54387;53.526;49.300;2023-01-06T04:36:00;-1.10;67.50
67557;DHT22;54387;53.526;49.300;2023-01-06T04:38:36;-1.20;66.70
67557;DHT22;54387;53.526;49.300;2023-01-06T04:41:12;-1.40;66.80
67557;DHT22;54387;53.526;49.300;2023-01-06T04:43:49;-1.40;66.80
67557;DHT22;54387;53.526;49.300;2023-01-06T04:46:25;-1.50;66.40
67557;DHT22;54387;53.526;49.300;2023-01-06T04:49:01;-1.60;66.10
67557;DHT22;54387;53.526;49.300;2023-01-06T04:51:37;-1.70;66.30
67557;DHT22;54387;53.526;49.300;2023-01-06T04:54:13;-1.80;66.40
67557;DHT22;54387;53.526;49.300;2023-01-06T04:56:49;-1.80;65.90
67557;DHT22;54387;53.526;49.300;2023-01-06T04:59:25;-1.90;65.80
67557;DHT22;54387;53.526;49.300;2023-01-06T05:02:02;-2.00;65.90
67557;DHT22;54387;53.526;49.300;2023-01-06T05:04:38;-2.10;65.60
67557;DHT22;54387;53.526;49.300;2023-01-06T05:07:14;-2.20;65.80
67557;DHT22;54387;53.526;49.300;2023-01-06T05:09:50;-2.20;65.40
67557;DHT22;54387;53.526;49.300;2023-01-06T05:12:26;-2.40;65.10
67557;DHT22;54387;53.526;49.300;2023-01-06T05:15:03;-2.50;65.50
67557;DHT22;54387;53.526;49.300;2023-01-06T05:17:39;-2.50;65.70
67557;DHT22;54387;53.526;49.300;2023-01-06T05:20:15;-2.60;65.50
67557;DHT22;54387;53.526;49.300;2023-01-06T05:22:51;-2.60;64.70
67557;DHT22;54387;53.526;49.300;2023-01-06T05:25:27;-2.70;65.20
67557;DHT22;54387;53.526;49.300;2023-01-06T05:28:04;-2.80;65.10
67557;DHT22;54387;53.526;49.300;2023-01-06T05:30:40;-2.80;64.60
67557;DHT22;54387;53.526;49.300;2023-01-06T05:33:16;-2.90;65.00
67557;DHT22;54387;53.526;49.300;2023-01-06T05:35:59;-3.00;65.30
67557;DHT22;54387;53.526;49.300;2023-01-06T05:38:35;-3.00;65.60
67557;DHT22;54387;53.526;49.300;2023-01-06T05:41:11;-3.00;65.60
67557;DHT22;54387;53.526;49.300;2023-01-06T05:43:47;-3.00;65.60
67557;DHT22;54387;53.526;49.300;2023-01-06T05:46:23;-3.00;65.40
67557;DHT22;54387;53.526;49.300;2023-01-06T05:48:59;-3.00;64.70
67557;DHT22;54387;53.526;49.300;2023-01-06T05:51:36;-3.10;64.50
67557;DHT22;54387;53.526;49.300;2023-01-06T05:54:12;-3.20;64.60
67557;DHT22;54387;53.526;49.300;2023-01-06T05:56:48;-3.30;64.50
67557;DHT22;54387;53.526;49.300;2023-01-06T05:59:24;-3.40;64.50
67557;DHT22;54387;53.526;49.300;2023-01-06T06:02:01;-3.50;64.70
67557;DHT22;54387;53.526;49.300;2023-01-06T06:04:37;-3.50;65.20
67557;DHT22;54387;53.526;49.300;2023-01-06T06:07:13;-3.60;65.20
67557;DHT22;54387;53.526;49.300;2023-01-06T06:09:49;-3.50;65.40
67557;DHT22;54387;53.526;49.300;2023-01-06T06:12:25;-3.50;65.50
67557;DHT22;54387;53.526;49.300;2023-01-06T06:15:01;-3.50;65.10
67557;DHT22;54387;53.526;49.300;2023-01-06T06:17:38;-3.50;64.60
67557;DHT22;54387;53.526;49.300;2023-01-06T06:20:14;-3.60;64.30
67557;DHT22;54387;53.526;49.300;2023-01-06T06:22:50;-3.60;64.40
67557;DHT22;54387;53.526;49.300;2023-01-06T06:25:26;-3.60;64.40
67557;DHT22;54387;53.526;49.300;2023-01-06T06:28:04;-3.70;64.60
67557;DHT22;54387;53.526;49.300;2023-01-06T06:30:40;-3.70;65.00
67557;DHT22;54387;53.526;49.300;2023-01-06T06:33:16;-3.70;64.80
67557;DHT22;54387;53.526;49.300;2023-01-06T06:35:58;-3.70;64.50
67557;DHT22;54387;53.526;49.300;2023-01-06T06:38:34;-3.70;64.70
67557;DHT22;54387;53.526;49.300;2023-01-06T06:41:11;-3.70;64.50
67557;DHT22;54387;53.526;49.300;2023-01-06T06:43:47;-3.70;65.00
67557;DHT22;54387;53.526;49.300;2023-01-06T06:46:24;-3.70;65.00
67557;DHT22;54387;53.526;49.300;2023-01-06T06:49:00;-3.70;64.80
67557;DHT22;54387;53.526;49.300;2023-01-06T06:51:36;-3.70;64.60
67557;DHT22;54387;53.526;49.300;2023-01-06T06:54:12;-3.70;64.80
67557;DHT22;54387;53.526;49.300;2023-01-06T06:56:49;-3.70;64.70
67557;DHT22;54387;53.526;49.300;2023-01-06T06:59:25;-3.60;64.20
67557;DHT22;54387;53.526;49.300;2023-01-06T07:02:01;-3.70;63.70
67557;DHT22;54387;53.526;49.300;2023-01-06T07:04:37;-3.70;63.70
67557;DHT22;54387;53.526;49.300;2023-01-06T07:07:13;-3.70;63.40
67557;DHT22;54387;53.526;49.300;2023-01-06T07:09:49;-3.80;62.90
67557;DHT22;54387;53.526;49.300;2023-01-06T07:12:26;-3.90;62.90
67557;DHT22;54387;53.526;49.300;2023-01-06T07:15:02;-3.90;63.10
67557;DHT22;54387;53.526;49.300;2023-01-06T07:17:38;-4.00;63.30
67557;DHT22;54387;53.526;49.300;2023-01-06T07:20:16;-4.00;63.60
67557;DHT22;54387;53.526;49.300;2023-01-06T07:22:52;-4.00;63.80
67557;DHT22;54387;53.526;49.300;2023-01-06T07:25:28;-4.00;63.10
67557;DHT22;54387;53.526;49.300;2023-01-06T07:28:04;-4.00;62.80
67557;DHT22;54387;53.526;49.300;2023-01-06T07:30:42;-4.00;63.10
67557;DHT22;54387;53.526;49.300;2023-01-06T07:33:18;-4.10;63.10
67557;DHT22;54387;53.526;49.300;2023-01-06T07:35:55;-4.10;62.70
67557;DHT22;54387;53.526;49.300;2023-01-06T07:38:31;-4.10;62.30
67557;DHT22;54387;53.526;49.300;2023-01-06T07:41:07;-4.20;61.90
67557;DHT22;54387;53.526;49.300;2023-01-06T07:43:43;-4.30;62.30
67557;DHT22;54387;53.526;49.300;2023-01-06T07:46:20;-4.30;62.00
67557;DHT22;54387;53.526;49.300;2023-01-06T07:48:56;-4.40;62.10
67557;DHT22;54387;53.526;49.300;2023-01-06T07:51:32;-4.40;62.20
67557;DHT22;54387;53.526;49.300;2023-01-06T07:54:08;-4.50;61.80
67557;DHT22;54387;53.526;49.300;2023-01-06T07:56:44;-4.50;61.90
67557;DHT22;54387;53.526;49.300;2023-01-06T07:59:20;-4.60;62.00
67557;DHT22;54387;53.526;49.300;2023-01-06T08:01:57;-4.60;61.50
67557;DHT22;54387;53.526;49.300;2023-01-06T08:04:33;-4.60;61.20
67557;DHT22;54387;53.526;49.300;2023-01-06T08:07:11;-4.70;60.70
67557;DHT22;54387;53.526;49.300;2023-01-06T08:09:47;-4.80;60.80
67557;DHT22;54387;53.526;49.300;2023-01-06T08:12:23;-4.80;61.00
67557;DHT22;54387;53.526;49.300;2023-01-06T08:14:59;-4.80;61.20
67557;DHT22;54387;53.526;49.300;2023-01-06T08:17:36;-4.90;61.10
67557;DHT22;54387;53.526;49.300;2023-01-06T08:20:12;-4.90;60.80
67557;DHT22;54387;53.526;49.300;2023-01-06T08:22:48;-5.00;61.10
67557;DHT22;54387;53.526;49.300;2023-01-06T08:25:24;-5.00;61.00
67557;DHT22;54387;53.526;49.300;2023-01-06T08:28:00;-5.00;61.20
67557;DHT22;54387;53.526;49.300;2023-01-06T08:30:37;-5.00;61.30
67557;DHT22;54387;53.526;49.300;2023-01-06T08:33:14;-5.00;61.40
67557;DHT22;54387;53.526;49.300;2023-01-06T08:35:55;-5.00;61.60
67557;DHT22;54387;53.526;49.300;2023-01-06T08:38:33;-5.10;60.70
67557;DHT22;54387;53.526;49.300;2023-01-06T08:41:10;-5.10;61.00
67557;DHT22;54387;53.526;49.300;2023-01-06T08:43:46;-5.20;60.90
67557;DHT22;54387;53.526;49.300;2023-01-06T08:46:23;-5.30;60.80
67557;DHT22;54387;53.526;49.300;2023-01-06T08:49:01;-5.40;61.20
67557;DHT22;54387;53.526;49.300;2023-01-06T08:51:37;-5.40;62.10
67557;DHT22;54387;53.526;49.300;2023-01-06T08:54:13;-5.50;62.10
67557;DHT22;54387;53.526;49.300;2023-01-06T08:56:49;-5.50;62.10
67557;DHT22;54387;53.526;49.300;2023-01-06T08:59:25;-5.60;62.30
67557;DHT22;54387;53.526;49.300;2023-01-06T09:02:01;-5.60;61.40
67557;DHT22;54387;53.526;49.300;2023-01-06T09:04:38;-5.60;61.00
67557;DHT22;54387;53.526;49.300;2023-01-06T09:07:14;-5.70;61.20
67557;DHT22;54387;53.526;49.300;2023-01-06T09:09:50;-5.70;60.90
67557;DHT22;54387;53.526;49.300;2023-01-06T09:12:26;-5.80;60.80
67557;DHT22;54387;53.526;49.300;2023-01-06T09:15:04;-5.90;61.00
67557;DHT22;54387;53.526;49.300;2023-01-06T09:17:40;-5.90;60.30
67557;DHT22;54387;53.526;49.300;2023-01-06T09:20:16;-6.00;59.70
67557;DHT22;54387;53.526;49.300;2023-01-06T09:22:52;-6.10;60.50
67557;DHT22;54387;53.526;49.300;2023-01-06T09:25:29;-6.20;60.50
67557;DHT22;54387;53.526;49.300;2023-01-06T09:28:05;-6.20;59.90
67557;DHT22;54387;53.526;49.300;2023-01-06T09:30:41;-6.30;60.30
67557;DHT22;54387;53.526;49.300;2023-01-06T09:33:18;-6.40;59.90
67557;DHT22;54387;53.526;49.300;2023-01-06T09:35:54;-6.40;60.80
67557;DHT22;54387;53.526;49.300;2023-01-06T09:38:31;-6.50;60.70
67557;DHT22;54387;53.526;49.300;2023-01-06T09:46:39;-6.70;59.60
67557;DHT22;54387;53.526;49.300;2023-01-06T09:51:56;-6.90;60.50
67557;DHT22;54387;53.526;49.300;2023-01-06T09:54:34;-7.00;59.00
67557;DHT22;54387;53.526;49.300;2023-01-06T09:57:13;-7.10;59.40
67557;DHT22;54387;53.526;49.300;2023-01-06T10:02:59;-7.20;58.30
67557;DHT22;54387;53.526;49.300;2023-01-06T10:08:28;-7.40;60.00
67557;DHT22;54387;53.526;49.300;2023-01-06T10:11:20;-7.40;59.00
67557;DHT22;54387;53.526;49.300;2023-01-06T10:16:49;-7.50;59.40
67557;DHT22;54387;53.526;49.300;2023-01-06T10:22:23;-7.50;59.10
67557;DHT22;54387;53.526;49.300;2023-01-06T10:27:52;-7.50;59.70
67557;DHT22;54387;53.526;49.300;2023-01-06T10:30:35;-7.50;59.30
67557;DHT22;54387;53.526;49.300;2023-01-06T10:35:55;-7.60;58.00
67557;DHT22;54387;53.526;49.300;2023-01-06T10:38:36;-7.70;57.90
67557;DHT22;54387;53.526;49.300;2023-01-06T10:41:25;-7.70;57.90
67557;DHT22;54387;53.526;49.300;2023-01-06T10:44:02;-7.80;58.00
67557;DHT22;54387;53.526;49.300;2023-01-06T10:46:38;-7.90;57.70
67557;DHT22;54387;53.526;49.300;2023-01-06T10:49:16;-8.00;58.20
67557;DHT22;54387;53.526;49.300;2023-01-06T10:51:58;-8.00;58.60
67557;DHT22;54387;53.526;49.300;2023-01-06T10:54:35;-8.00;58.50
67557;DHT22;54387;53.526;49.300;2023-01-06T10:57:15;-8.10;59.00
67557;DHT22;54387;53.526;49.300;2023-01-06T11:02:49;-8.20;57.00
67557;DHT22;54387;53.526;49.300;2023-01-06T11:05:26;-8.30;56.00
67557;DHT22;54387;53.526;49.300;2023-01-06T11:08:12;-8.40;56.00
67557;DHT22;54387;53.526;49.300;2023-01-06T11:10:50;-8.60;55.90
67557;DHT22;54387;53.526;49.300;2023-01-06T11:13:28;-8.70;55.70
67557;DHT22;54387;53.526;49.300;2023-01-06T11:16:05;-8.80;55.40
67557;DHT22;54387;53.526;49.300;2023-01-06T11:18:43;-8.90;56.30
67557;DHT22;54387;53.526;49.300;2023-01-06T11:21:41;-8.90;56.10
67557;DHT22;54387;53.526;49.300;2023-01-06T11:24:19;-9.00;56.20
67557;DHT22;54387;53.526;49.300;2023-01-06T11:26:58;-9.00;57.20
67557;DHT22;54387;53.526;49.300;2023-01-06T11:29:34;-9.00;58.00
67557;DHT22;54387;53.526;49.300;2023-01-06T11:32:23;-9.00;57.60
67557;DHT22;54387;53.526;49.300;2023-01-06T11:35:02;-9.10;56.80
67557;DHT22;54387;53.526;49.300;2023-01-06T11:37:40;-9.10;57.10
67557;DHT22;54387;53.526;49.300;2023-01-06T11:40:35;-9.20;56.00
67557;DHT22;54387;53.526;49.300;2023-01-06T11:43:16;-9.30;55.80
67557;DHT22;54387;53.526;49.300;2023-01-06T11:45:55;-9.50;55.90
67557;DHT22;54387;53.526;49.300;2023-01-06T11:48:35;-9.60;56.40
67557;DHT22;54387;53.526;49.300;2023-01-06T11:51:15;-9.70;55.40
67557;DHT22;54387;53.526;49.300;2023-01-06T11:54:15;-9.80;54.40
67557;DHT22;54387;53.526;49.300;2023-01-06T11:56:56;-9.90;54.40
67557;DHT22;54387;53.526;49.300;2023-01-06T12:03:12;-10.10;54.80
67557;DHT22;54387;53.526;49.300;2023-01-06T12:08:19;-10.30;52.80
67557;DHT22;54387;53.526;49.300;2023-01-06T12:10:57;-10.40;53.30
67557;DHT22;54387;53.526;49.300;2023-01-06T12:13:36;-10.50;53.10
67557;DHT22;54387;53.526;49.300;2023-01-06T12:16:14;-10.60;54.00
67557;DHT22;54387;53.526;49.300;2023-01-06T12:18:52;-10.70;53.90
67557;DHT22;54387;53.526;49.300;2023-01-06T12:21:29;-10.80;52.90
67557;DHT22;54387;53.526;49.300;2023-01-06T12:24:06;-10.80;53.30
67557;DHT22;54387;53.526;49.300;2023-01-06T12:26:45;-10.90;52.90
67557;DHT22;54387;53.526;49.300;2023-01-06T12:29:21;-11.00;53.30
67557;DHT22;54387;53.526;49.300;2023-01-06T12:32:06;-11.00;53.00
67557;DHT22;54387;53.526;49.300;2023-01-06T12:34:44;-11.10;52.30
67557;DHT22;54387;53.526;49.300;2023-01-06T12:37:27;-11.20;52.50
67557;DHT22;54387;53.526;49.300;2023-01-06T12:40:12;-11.30;52.90
67557;DHT22;54387;53.526;49.300;2023-01-06T12:45:53;-11.40;52.20
67557;DHT22;54387;53.526;49.300;2023-01-06T12:53:51;-11.70;51.80
67557;DHT22;54387;53.526;49.300;2023-01-06T12:59:30;-11.80;50.50
67557;DHT22;54387;53.526;49.300;2023-01-06T13:02:15;-11.90;51.30
67557;DHT22;54387;53.526;49.300;2023-01-06T13:10:36;-12.20;51.20
67557;DHT22;54387;53.526;49.300;2023-01-06T13:19:08;-12.50;51.60
67557;DHT22;54387;53.526;49.300;2023-01-06T13:21:45;-12.50;51.30
67557;DHT22;54387;53.526;49.300;2023-01-06T13:35:22;-13.10;50.00
67557;DHT22;54387;53.526;49.300;2023-01-06T13:40:56;-13.40;49.20
67557;DHT22;54387;53.526;49.300;2023-01-06T13:43:33;-13.50;49.30
67557;DHT22;54387;53.526;49.300;2023-01-06T13:46:10;-13.60;49.50
67557;DHT22;54387;53.526;49.300;2023-01-06T13:49:09;-13.70;48.70
67557;DHT22;54387;53.526;49.300;2023-01-06T13:51:44;-13.80;49.00
67557;DHT22;54387;53.526;49.300;2023-01-06T14:07:59;-14.50;48.60
67557;DHT22;54387;53.526;49.300;2023-01-06T14:13:21;-14.70;47.80
67557;DHT22;54387;53.526;49.300;2023-01-06T14:16:11;-14.70;48.20
67557;DHT22;54387;53.526;49.300;2023-01-06T14:19:02;-14.80;48.40
67557;DHT22;54387;53.526;49.300;2023-01-06T14:21:40;-14.90;48.40
67557;DHT22;54387;53.526;49.300;2023-01-06T14:24:26;-15.00;48.60
67557;DHT22;54387;53.526;49.300;2023-01-06T14:27:04;-15.00;48.30
67557;DHT22;54387;53.526;49.300;2023-01-06T14:35:00;-15.30;47.60
67557;DHT22;54387;53.526;49.300;2023-01-06T14:38:26;-15.30;47.70
67557;DHT22;54387;53.526;49.300;2023-01-06T14:40:38;-15.40;47.70
67557;DHT22;54387;53.526;49.300;2023-01-06T14:46:16;-15.50;48.30
67557;DHT22;54387;53.526;49.300;2023-01-06T14:49:00;-15.60;47.70
67557;DHT22;54387;53.526;49.300;2023-01-06T14:51:37;-15.60;47.60
67557;DHT22;54387;53.526;49.300;2023-01-06T14:54:18;-15.70;47.60
67557;DHT22;54387;53.526;49.300;2023-01-06T14:56:57;-15.70;48.00
67557;DHT22;54387;53.526;49.300;2023-01-06T14:59:33;-15.70;48.30
67557;DHT22;54387;53.526;49.300;2023-01-06T15:02:14;-15.80;48.10
67557;DHT22;54387;53.526;49.300;2023-01-06T15:04:50;-15.80;48.30
67557;DHT22;54387;53.526;49.300;2023-01-06T15:07:29;-15.80;48.60
67557;DHT22;54387;53.526;49.300;2023-01-06T15:10:17;-15.80;48.40
67557;DHT22;54387;53.526;49.300;2023-01-06T15:12:55;-15.80;48.20
67557;DHT22;54387;53.526;49.300;2023-01-06T15:15:32;-15.80;49.00
67557;DHT22;54387;53.526;49.300;2023-01-06T15:18:09;-15.90;47.60
67557;DHT22;54387;53.526;49.300;2023-01-06T15:20:46;-15.90;47.50
67557;DHT22;54387;53.526;49.300;2023-01-06T15:23:22;-16.00;47.90
67557;DHT22;54387;53.526;49.300;2023-01-06T15:25:59;-16.00;48.10
67557;DHT22;54387;53.526;49.300;2023-01-06T15:28:35;-16.10;47.50
67557;DHT22;54387;53.526;49.300;2023-01-06T15:31:17;-16.10;47.80
67557;DHT22;54387;53.526;49.300;2023-01-06T15:33:53;-16.20;47.90
67557;DHT22;54387;53.526;49.300;2023-01-06T15:36:30;-16.20;48.00
67557;DHT22;54387;53.526;49.300;2023-01-06T15:39:08;-16.20;48.20
67557;DHT22;54387;53.526;49.300;2023-01-06T15:41:46;-16.20;48.10
67557;DHT22;54387;53.526;49.300;2023-01-06T15:49:51;-16.30;47.40
67557;DHT22;54387;53.526;49.300;2023-01-06T15:52:29;-16.30;47.50
67557;DHT22;54387;53.526;49.300;2023-01-06T15:55:17;-16.40;47.50
67557;DHT22;54387;53.526;49.300;2023-01-06T15:57:56;-16.40;47.60
67557;DHT22;54387;53.526;49.300;2023-01-06T16:00:35;-16.40;47.70
67557;DHT22;54387;53.526;49.300;2023-01-06T16:03:16;-16.50;47.70
67557;DHT22;54387;53.526;49.300;2023-01-06T16:08:42;-16.50;47.30
67557;DHT22;54387;53.526;49.300;2023-01-06T16:11:25;-16.60;46.80
67557;DHT22;54387;53.526;49.300;2023-01-06T16:14:22;-16.60;47.20
67557;DHT22;54387;53.526;49.300;2023-01-06T16:19:57;-16.60;47.00
67557;DHT22;54387;53.526;49.300;2023-01-06T16:22:44;-16.60;47.20
67557;DHT22;54387;53.526;49.300;2023-01-06T16:25:24;-16.60;47.30
67557;DHT22;54387;53.526;49.300;2023-01-06T16:28:02;-16.70;47.30
67557;DHT22;54387;53.526;49.300;2023-01-06T16:30:39;-16.70;47.30
67557;DHT22;54387;53.526;49.300;2023-01-06T16:36:12;-16.70;47.40
67557;DHT22;54387;53.526;49.300;2023-01-06T16:38:48;-16.70;47.50
67557;DHT22;54387;53.526;49.300;2023-01-06T16:41:24;-16.70;47.70
67557;DHT22;54387;53.526;49.300;2023-01-06T16:44:01;-16.70;47.00
67557;DHT22;54387;53.526;49.300;2023-01-06T16:46:37;-16.70;46.90
67557;DHT22;54387;53.526;49.300;2023-01-06T16:49:13;-16.70;46.80
67557;DHT22;54387;53.526;49.300;2023-01-06T16:51:49;-16.70;47.00
67557;DHT22;54387;53.526;49.300;2023-01-06T16:54:25;-16.70;46.90
67557;DHT22;54387;53.526;49.300;2023-01-06T16:57:01;-16.70;46.60
67557;DHT22;54387;53.526;49.300;2023-01-06T16:59:38;-16.80;46.40
67557;DHT22;54387;53.526;49.300;2023-01-06T17:02:15;-16.80;46.60
67557;DHT22;54387;53.526;49.300;2023-01-06T17:04:51;-16.90;46.60
67557;DHT22;54387;53.526;49.300;2023-01-06T17:07:28;-16.90;46.80
67557;DHT22;54387;53.526;49.300;2023-01-06T17:10:06;-16.90;46.90
67557;DHT22;54387;53.526;49.300;2023-01-06T17:12:43;-17.00;46.60
67557;DHT22;54387;53.526;49.300;2023-01-06T17:15:38;-17.10;46.70
67557;DHT22;54387;53.526;49.300;2023-01-06T17:18:18;-17.10;46.60
67557;DHT22;54387;53.526;49.300;2023-01-06T17:21:14;-17.10;46.40
67557;DHT22;54387;53.526;49.300;2023-01-06T17:24:01;-17.10;46.30
67557;DHT22;54387;53.526;49.300;2023-01-06T17:26:41;-17.20;46.40
67557;DHT22;54387;53.526;49.300;2023-01-06T17:29:21;-17.20;46.40
67557;DHT22;54387;53.526;49.300;2023-01-06T17:31:59;-17.20;45.90
67557;DHT22;54387;53.526;49.300;2023-01-06T17:34:35;-17.20;45.80
67557;DHT22;54387;53.526;49.300;2023-01-06T17:37:14;-17.20;45.80
67557;DHT22;54387;53.526;49.300;2023-01-06T17:39:53;-17.30;45.70
67557;DHT22;54387;53.526;49.300;2023-01-06T17:42:30;-17.30;45.60
67557;DHT22;54387;53.526;49.300;2023-01-06T17:45:12;-17.30;45.80
67557;DHT22;54387;53.526;49.300;2023-01-06T17:47:49;-17.30;46.10
67557;DHT22;54387;53.526;49.300;2023-01-06T17:53:09;-17.30;46.20
67557;DHT22;54387;53.526;49.300;2023-01-06T17:56:05;-17.30;46.40
67557;DHT22;54387;53.526;49.300;2023-01-06T17:58:42;-17.30;46.60
67557;DHT22;54387;53.526;49.300;2023-01-06T18:03:55;-17.30;46.50
67557;DHT22;54387;53.526;49.300;2023-01-06T18:06:31;-17.30;46.30
67557;DHT22;54387;53.526;49.300;2023-01-06T18:09:14;-17.30;46.40
67557;DHT22;54387;53.526;49.300;2023-01-06T18:11:51;-17.40;46.30
67557;DHT22;54387;53.526;49.300;2023-01-06T18:14:30;-17.40;46.30
67557;DHT22;54387;53.526;49.300;2023-01-06T18:19:56;-17.30;46.40
67557;DHT22;54387;53.526;49.300;2023-01-06T18:22:33;-17.30;46.00
67557;DHT22;54387;53.526;49.300;2023-01-06T18:25:15;-17.40;45.90
67557;DHT22;54387;53.526;49.300;2023-01-06T18:27:51;-17.40;46.00
67557;DHT22;54387;53.526;49.300;2023-01-06T18:30:28;-17.30;46.10
67557;DHT22;54387;53.526;49.300;2023-01-06T18:33:09;-17.40;45.60
67557;DHT22;54387;53.526;49.300;2023-01-06T18:35:47;-17.40;45.70
67557;DHT22;54387;53.526;49.300;2023-01-06T18:38:27;-17.50;45.70
67557;DHT22;54387;53.526;49.300;2023-01-06T18:41:08;-17.50;45.60
67557;DHT22;54387;53.526;49.300;2023-01-06T18:43:44;-17.60;45.50
67557;DHT22;54387;53.526;49.300;2023-01-06T18:46:20;-17.60;45.00
67557;DHT22;54387;53.526;49.300;2023-01-06T18:48:57;-17.70;44.90
67557;DHT22;54387;53.526;49.300;2023-01-06T18:51:33;-17.70;45.20
67557;DHT22;54387;53.526;49.300;2023-01-06T18:54:17;-17.70;45.20
67557;DHT22;54387;53.526;49.300;2023-01-06T18:56:53;-17.70;45.50
67557;DHT22;54387;53.526;49.300;2023-01-06T18:59:29;-17.70;45.60